createdAt,value
2022-10-13T00:01:24.429Z,13.24
2022-10-13T00:03:52.909Z,13.04
2022-10-13T00:06:23.843Z,13.16
2022-10-13T00:08:52.665Z,13.10
2022-10-13T00:11:22.712Z,13.13
2022-10-13T00:13:53.087Z,13.15
2022-10-13T00:16:23.121Z,13.14
2022-10-13T00:18:52.298Z,13.10
2022-10-13T00:21:24.723Z,12.67
2022-10-13T00:23:54.588Z,13.01
2022-10-13T00:26:25.633Z,12.97
2022-10-13T00:28:55.888Z,12.87
2022-10-13T00:31:27.299Z,12.88
2022-10-13T00:33:55.705Z,12.84
2022-10-13T00:36:25.539Z,12.82
2022-10-13T00:38:54.766Z,12.59
2022-10-13T00:41:23.276Z,12.78
2022-10-13T00:44:00.136Z,12.76
2022-10-13T00:46:31.391Z,12.72
2022-10-13T00:49:05.195Z,12.73
2022-10-13T00:51:36.506Z,12.54
2022-10-13T00:54:07.840Z,12.66
2022-10-13T00:56:39.089Z,12.64
2022-10-13T00:59:13.847Z,12.44
2022-10-13T01:01:42.717Z,12.63
2022-10-13T01:04:11.748Z,12.61
2022-10-13T01:06:40.551Z,12.55
2022-10-13T01:09:09.484Z,12.50
2022-10-13T01:11:54.501Z,12.21
2022-10-13T01:14:32.945Z,12.47
2022-10-13T01:17:11.734Z,12.47
2022-10-13T01:20:05.831Z,12.40
2022-10-13T01:22:46.577Z,12.39
2022-10-13T01:25:32.640Z,12.37
2022-10-13T01:28:19.493Z,12.31
2022-10-13T01:30:57.796Z,12.27
2022-10-13T01:33:35.171Z,12.05
2022-10-13T01:36:16.839Z,12.17
2022-10-13T01:38:49.556Z,12.13
2022-10-13T01:41:24.480Z,12.12
2022-10-13T01:43:59.327Z,12.11
2022-10-13T01:46:33.052Z,12.10
2022-10-13T01:49:05.791Z,12.06
2022-10-13T01:51:35.342Z,12.05
2022-10-13T01:54:03.638Z,12.02
2022-10-13T01:56:31.845Z,11.99
2022-10-13T01:59:04.082Z,12.03
2022-10-13T02:01:55.290Z,12.06
2022-10-13T02:04:33.318Z,11.94
2022-10-13T02:07:08.641Z,11.99
2022-10-13T02:09:45.354Z,12.00
2022-10-13T02:12:18.507Z,11.98
2022-10-13T02:14:49.805Z,11.94
2022-10-13T02:17:20.796Z,11.94
2022-10-13T02:19:49.255Z,11.93
2022-10-13T02:22:19.070Z,11.91
2022-10-13T02:24:47.585Z,11.87
2022-10-13T02:27:15.860Z,11.86
2022-10-13T02:29:51.753Z,11.89
2022-10-13T02:32:22.242Z,11.88
2022-10-13T02:34:50.702Z,11.85
2022-10-13T02:37:19.540Z,11.79
2022-10-13T02:39:47.882Z,11.79
2022-10-13T02:42:18.836Z,11.81
2022-10-13T02:44:48.426Z,11.78
2022-10-13T02:47:16.709Z,11.74
2022-10-13T02:49:46.649Z,11.76
2022-10-13T02:52:14.962Z,11.75
2022-10-13T02:54:44.306Z,11.76
2022-10-13T02:57:12.590Z,11.72
2022-10-13T02:59:44.914Z,11.64
2022-10-13T03:02:13.239Z,11.61
2022-10-13T03:04:41.527Z,11.63
2022-10-13T03:07:11.315Z,11.62
2022-10-13T03:09:39.565Z,11.60
2022-10-13T03:12:08.481Z,11.35
2022-10-13T03:14:37.042Z,11.56
2022-10-13T03:17:08.819Z,11.51
2022-10-13T03:19:40.836Z,11.48
2022-10-13T03:22:15.526Z,11.45
2022-10-13T03:24:44.186Z,11.44
2022-10-13T03:27:12.505Z,11.44
2022-10-13T03:29:40.779Z,11.41
2022-10-13T03:32:09.073Z,11.35
2022-10-13T03:34:37.445Z,11.32
2022-10-13T03:37:05.798Z,11.33
2022-10-13T03:39:42.149Z,11.32
2022-10-13T03:42:12.978Z,11.34
2022-10-13T03:44:41.378Z,11.38
2022-10-13T03:47:09.649Z,11.36
2022-10-13T03:49:39.172Z,11.33
2022-10-13T03:52:07.918Z,11.34
2022-10-13T03:54:36.238Z,11.32
2022-10-13T03:57:05.801Z,11.25
2022-10-13T03:59:36.783Z,11.21
2022-10-13T04:02:05.926Z,11.20
2022-10-13T04:04:34.280Z,10.19
2022-10-13T04:07:02.901Z,11.20
2022-10-13T04:09:31.381Z,11.22
2022-10-13T04:11:59.621Z,11.17
2022-10-13T04:14:29.321Z,11.17
2022-10-13T04:17:03.482Z,11.14
2022-10-13T04:19:31.835Z,11.09
2022-10-13T04:22:01.574Z,11.19
2022-10-13T04:24:29.924Z,11.16
2022-10-13T04:26:58.118Z,11.15
2022-10-13T04:29:26.548Z,11.18
2022-10-13T04:31:56.549Z,11.18
2022-10-13T04:34:24.830Z,11.11
2022-10-13T04:36:53.318Z,11.06
2022-10-13T04:39:21.580Z,11.06
2022-10-13T04:41:52.126Z,11.06
2022-10-13T04:44:20.580Z,11.06
2022-10-13T04:46:48.823Z,10.30
2022-10-13T04:49:19.131Z,10.98
2022-10-13T04:51:48.350Z,10.99
2022-10-13T04:54:16.565Z,10.98
2022-10-13T04:56:46.470Z,10.99
2022-10-13T04:59:14.775Z,10.97
2022-10-13T05:01:43.379Z,10.95
2022-10-13T05:04:14.708Z,10.97
2022-10-13T05:07:12.672Z,10.98
2022-10-13T05:09:32.642Z,10.76
2022-10-13T05:12:01.499Z,10.97
2022-10-13T05:14:31.159Z,10.98
2022-10-13T05:17:01.555Z,10.96
2022-10-13T05:19:29.836Z,10.92
2022-10-13T05:22:00.781Z,10.92
2022-10-13T05:24:36.672Z,10.92
2022-10-13T05:27:07.136Z,10.91
2022-10-13T05:29:36.791Z,10.92
2022-10-13T05:32:05.757Z,10.91
2022-10-13T05:34:34.300Z,10.90
2022-10-13T05:37:04.690Z,10.92
2022-10-13T05:39:34.564Z,10.88
2022-10-13T05:42:02.985Z,10.90
2022-10-13T05:44:31.303Z,10.94
2022-10-13T05:47:02.557Z,10.97
2022-10-13T05:49:36.418Z,10.71
2022-10-13T05:52:10.151Z,10.94
2022-10-13T05:54:43.098Z,10.91
2022-10-13T05:57:17.406Z,10.95
2022-10-13T05:59:51.986Z,10.97
2022-10-13T06:02:23.318Z,10.97
2022-10-13T06:04:55.763Z,10.72
2022-10-13T06:07:25.924Z,10.97
2022-10-13T06:09:54.531Z,10.93
2022-10-13T06:12:23.091Z,10.98
2022-10-13T06:14:51.681Z,10.67
2022-10-13T06:17:20.963Z,11.02
2022-10-13T06:19:49.283Z,11.00
2022-10-13T06:22:17.692Z,11.06
2022-10-13T06:24:47.594Z,11.09
2022-10-13T06:27:15.920Z,11.07
2022-10-13T06:29:45.529Z,11.14
2022-10-13T06:32:13.802Z,11.18
2022-10-13T06:34:42.083Z,11.25
2022-10-13T06:37:10.728Z,11.27
2022-10-13T06:39:38.961Z,11.30
2022-10-13T06:42:08.744Z,11.34
2022-10-13T06:44:40.021Z,11.40
2022-10-13T06:47:09.725Z,11.44
2022-10-13T06:49:37.995Z,11.45
2022-10-13T06:52:06.537Z,11.52
2022-10-13T06:54:35.726Z,11.53
2022-10-13T06:57:08.649Z,11.63
2022-10-13T06:59:37.003Z,11.67
2022-10-13T07:02:05.516Z,11.75
2022-10-13T07:04:34.291Z,11.86
2022-10-13T07:07:03.108Z,11.96
2022-10-13T07:09:33.004Z,12.00
2022-10-13T07:12:01.824Z,12.05
2022-10-13T07:14:32.929Z,12.13
2022-10-13T07:17:01.322Z,12.23
2022-10-13T07:19:29.625Z,12.32
2022-10-13T07:21:58.182Z,12.37
2022-10-13T07:24:26.827Z,12.49
2022-10-13T07:26:55.647Z,12.58
2022-10-13T07:29:23.976Z,12.63
2022-10-13T07:31:54.932Z,12.71
2022-10-13T07:34:23.238Z,12.77
2022-10-13T07:36:51.501Z,12.84
2022-10-13T07:39:19.853Z,12.92
2022-10-13T07:41:51.052Z,13.01
2022-10-13T07:44:19.943Z,13.09
2022-10-13T07:46:48.215Z,13.17
2022-10-13T07:49:20.371Z,13.26
2022-10-13T07:51:48.715Z,13.29
2022-10-13T07:54:23.692Z,13.38
2022-10-13T07:56:56.287Z,13.43
2022-10-13T07:59:24.641Z,13.52
2022-10-13T08:01:53.435Z,13.59
2022-10-13T08:04:23.283Z,13.65
2022-10-13T08:06:51.584Z,13.72
2022-10-13T08:09:19.811Z,13.83
2022-10-13T08:11:48.115Z,13.89
2022-10-13T08:14:16.394Z,13.99
2022-10-13T08:16:48.685Z,14.06
2022-10-13T08:19:22.273Z,14.14
2022-10-13T08:21:58.234Z,14.18
2022-10-13T08:24:28.165Z,14.22
2022-10-13T08:26:56.597Z,14.02
2022-10-13T08:29:25.018Z,14.36
2022-10-13T08:31:54.690Z,14.44
2022-10-13T08:34:23.485Z,14.49
2022-10-13T08:36:54.917Z,14.61
2022-10-13T08:39:25.445Z,14.72
2022-10-13T08:41:54.656Z,14.84
2022-10-13T08:47:25.614Z,15.11
2022-10-13T08:49:59.820Z,15.26
2022-10-13T08:52:43.206Z,15.46
2022-10-13T08:55:21.439Z,15.63
2022-10-13T08:57:50.032Z,15.80
2022-10-13T09:00:19.318Z,15.98
2022-10-13T09:02:51.646Z,16.14
2022-10-13T09:05:29.224Z,16.26
2022-10-13T09:08:13.150Z,16.35
2022-10-13T09:10:49.103Z,16.43
2022-10-13T09:13:21.146Z,16.49
2022-10-13T09:15:51.538Z,16.37
2022-10-13T09:18:19.955Z,16.64
2022-10-13T09:20:48.252Z,16.69
2022-10-13T09:23:23.845Z,16.77
2022-10-13T09:25:56.105Z,16.83
2022-10-13T09:28:26.982Z,16.88
2022-10-13T09:31:04.295Z,16.95
2022-10-13T09:33:36.716Z,17.02
2022-10-13T09:36:12.252Z,17.07
2022-10-13T09:38:43.906Z,17.09
2022-10-13T09:41:22.212Z,17.10
2022-10-13T09:44:05.862Z,17.15
2022-10-13T09:46:37.606Z,17.20
2022-10-13T09:49:09.602Z,17.19
2022-10-13T09:51:41.186Z,17.32
2022-10-13T09:54:43.139Z,17.41
2022-10-13T09:57:18.785Z,17.42
2022-10-13T09:59:50.864Z,17.48
2022-10-13T10:02:28.469Z,17.53
2022-10-13T10:04:59.846Z,17.58
2022-10-13T10:07:31.425Z,17.67
2022-10-13T10:10:05.324Z,17.59
2022-10-13T10:12:37.471Z,17.85
2022-10-13T10:15:21.522Z,17.97
2022-10-13T10:17:57.021Z,18.10
2022-10-13T10:20:40.282Z,18.15
2022-10-13T10:23:15.339Z,18.06
2022-10-13T10:25:49.272Z,18.27
2022-10-13T10:28:51.818Z,18.40
2022-10-13T10:31:36.988Z,18.48
2022-10-13T10:34:27.281Z,18.52
2022-10-13T10:37:13.725Z,18.70
2022-10-13T10:39:48.240Z,18.77
2022-10-13T10:42:49.712Z,18.90
2022-10-13T10:45:25.017Z,19.03
2022-10-13T10:47:57.958Z,19.05
2022-10-13T10:50:29.969Z,19.40
2022-10-13T10:53:08.458Z,19.60
2022-10-13T10:55:46.547Z,19.78
2022-10-13T10:58:28.441Z,19.93
2022-10-13T11:01:20.125Z,20.01
2022-10-13T11:03:56.081Z,20.04
2022-10-13T11:06:36.289Z,19.34
2022-10-13T11:09:06.211Z,20.17
2022-10-13T11:11:40.228Z,20.22
2022-10-13T11:14:31.191Z,20.17
2022-10-13T11:17:18.924Z,20.18
2022-10-13T11:19:49.105Z,20.20
2022-10-13T11:22:20.290Z,20.28
2022-10-13T11:24:54.847Z,20.35
2022-10-13T11:27:29.686Z,20.41
2022-10-13T11:30:02.099Z,20.59
2022-10-13T11:32:55.700Z,20.67
2022-10-13T11:35:28.025Z,20.67
2022-10-13T11:38:16.866Z,20.70
2022-10-13T11:41:06.890Z,20.77
2022-10-13T11:43:54.110Z,20.85
2022-10-13T11:46:34.119Z,20.89
2022-10-13T11:49:30.994Z,20.95
2022-10-13T11:52:24.689Z,21.05
2022-10-13T11:55:02.267Z,21.13
2022-10-13T11:57:32.926Z,21.19
2022-10-13T12:00:04.375Z,21.28
2022-10-13T12:02:51.070Z,21.38
2022-10-13T12:05:23.840Z,21.50
2022-10-13T12:07:53.710Z,21.59
2022-10-13T12:10:26.287Z,21.70
2022-10-13T12:12:54.911Z,21.80
2022-10-13T12:15:36.507Z,21.93
2022-10-13T12:18:22.604Z,21.95
2022-10-13T12:20:55.391Z,22.03
2022-10-13T12:23:23.849Z,22.09
2022-10-13T12:25:57.955Z,22.10
2022-10-13T12:28:28.573Z,22.03
2022-10-13T12:30:58.839Z,22.06
2022-10-13T12:33:33.137Z,22.11
2022-10-13T12:36:16.026Z,22.14
2022-10-13T12:38:50.111Z,22.21
2022-10-13T12:41:23.953Z,22.30
2022-10-13T12:43:52.933Z,22.26
2022-10-13T12:46:41.550Z,22.26
2022-10-13T12:49:15.961Z,22.29
2022-10-13T12:51:46.974Z,22.33
2022-10-13T12:54:24.638Z,22.39
2022-10-13T12:56:56.316Z,22.39
2022-10-13T12:59:26.007Z,22.41
2022-10-13T13:01:57.055Z,22.34
2022-10-13T13:04:39.915Z,22.34
2022-10-13T13:07:27.996Z,22.32
2022-10-13T13:10:05.313Z,22.27
2022-10-13T13:12:33.667Z,22.34
2022-10-13T13:15:19.901Z,22.42
2022-10-13T13:18:03.797Z,22.43
2022-10-13T13:20:37.937Z,22.46
2022-10-13T13:23:06.212Z,22.45
2022-10-13T13:25:34.482Z,22.46
2022-10-13T13:28:05.644Z,22.21
2022-10-13T13:30:33.935Z,22.44
2022-10-13T13:33:02.287Z,22.41
2022-10-13T13:35:30.540Z,22.35
2022-10-13T13:38:00.258Z,22.34
2022-10-13T13:40:29.426Z,22.35
2022-10-13T13:42:57.623Z,22.38
2022-10-13T13:45:32.321Z,22.38
2022-10-13T13:48:03.476Z,22.37
2022-10-13T13:50:35.455Z,22.33
2022-10-13T13:53:06.493Z,22.25
2022-10-13T13:55:34.848Z,22.21
2022-10-13T13:58:04.585Z,22.16
2022-10-13T14:00:32.839Z,22.11
2022-10-13T14:03:01.112Z,22.06
2022-10-13T14:05:29.351Z,21.99
2022-10-13T14:07:59.058Z,21.95
2022-10-13T14:10:29.378Z,21.88
2022-10-13T14:12:57.610Z,21.83
2022-10-13T14:15:29.668Z,21.79
2022-10-13T14:17:58.476Z,21.75
2022-10-13T14:20:26.875Z,21.73
2022-10-13T14:22:55.239Z,21.52
2022-10-13T14:25:23.477Z,21.60
2022-10-13T14:27:53.338Z,21.53
2022-10-13T14:30:21.704Z,21.46
2022-10-13T14:32:49.985Z,21.38
2022-10-13T14:35:18.225Z,21.33
2022-10-13T14:37:46.531Z,21.27
2022-10-13T14:40:14.888Z,21.24
2022-10-13T14:42:43.373Z,21.19
2022-10-13T14:45:18.157Z,21.14
2022-10-13T14:47:46.502Z,21.07
2022-10-13T14:50:14.712Z,21.00
2022-10-13T14:52:43.100Z,20.95
2022-10-13T14:55:11.472Z,20.89
2022-10-13T14:57:40.401Z,20.86
2022-10-13T15:00:10.977Z,20.83
2022-10-13T15:02:40.762Z,20.75
2022-10-13T15:05:09.719Z,20.69
2022-10-13T15:07:41.112Z,20.66
2022-10-13T15:10:10.209Z,20.62
2022-10-13T15:12:38.494Z,20.60
2022-10-13T15:15:07.317Z,20.55
2022-10-13T15:17:37.037Z,20.49
2022-10-13T15:20:08.392Z,20.18
2022-10-13T15:22:36.767Z,20.42
2022-10-13T15:25:10.467Z,20.37
2022-10-13T15:27:41.987Z,20.29
2022-10-13T15:30:11.511Z,20.19
2022-10-13T15:32:39.702Z,20.11
2022-10-13T15:35:09.973Z,20.08
2022-10-13T15:37:42.406Z,20.06
2022-10-13T15:40:12.028Z,20.04
2022-10-13T15:42:40.230Z,20.01
2022-10-13T15:45:10.697Z,19.96
2022-10-13T15:47:39.613Z,19.95
2022-10-13T15:50:10.152Z,19.94
2022-10-13T15:52:42.266Z,19.86
2022-10-13T15:55:11.789Z,19.79
2022-10-13T15:57:40.314Z,19.71
2022-10-13T16:00:10.460Z,19.71
2022-10-13T16:02:42.828Z,19.71
2022-10-13T16:05:14.174Z,19.40
2022-10-13T16:07:44.017Z,19.65
2022-10-13T16:10:15.750Z,19.57
2022-10-13T16:12:49.354Z,19.57
2022-10-13T16:15:19.790Z,19.58
2022-10-13T16:17:48.229Z,19.57
2022-10-13T16:20:17.914Z,19.53
2022-10-13T16:22:46.225Z,19.50
2022-10-13T16:25:14.489Z,19.46
2022-10-13T16:27:44.518Z,19.47
2022-10-13T16:30:13.882Z,19.42
2022-10-13T16:32:42.287Z,19.35
2022-10-13T16:35:10.953Z,19.31
2022-10-13T16:37:41.590Z,19.31
2022-10-13T16:40:10.806Z,19.20
2022-10-13T16:42:39.307Z,19.08
2022-10-13T16:45:08.768Z,19.00
2022-10-13T16:47:37.012Z,18.98
2022-10-13T16:50:09.598Z,18.94
2022-10-13T16:52:38.141Z,18.88
2022-10-13T16:55:09.428Z,18.82
2022-10-13T16:57:37.697Z,18.76
2022-10-13T17:00:07.150Z,18.69
2022-10-13T17:02:36.765Z,18.51
2022-10-13T17:05:05.618Z,18.75
2022-10-13T17:07:33.855Z,18.75
2022-10-13T17:10:03.982Z,18.74
2022-10-13T17:12:33.614Z,18.69
2022-10-13T17:15:01.835Z,18.57
2022-10-13T17:17:30.192Z,18.58
2022-10-13T17:19:58.392Z,18.55
2022-10-13T17:22:27.047Z,18.55
2022-10-13T17:24:58.011Z,18.48
2022-10-13T17:27:26.449Z,18.44
2022-10-13T17:29:56.203Z,18.42
2022-10-13T17:32:24.525Z,18.41
2022-10-13T17:34:52.745Z,18.41
2022-10-13T17:37:21.499Z,18.38
2022-10-13T17:39:52.566Z,18.36
2022-10-13T17:42:21.237Z,18.36
2022-10-13T17:44:49.966Z,18.32
2022-10-13T17:47:20.033Z,18.28
2022-10-13T17:49:48.775Z,18.22
2022-10-13T17:52:19.663Z,18.20
2022-10-13T17:54:49.239Z,18.13
2022-10-13T17:57:17.571Z,18.04
2022-10-13T17:59:46.938Z,18.04
2022-10-13T18:02:15.361Z,18.07
2022-10-13T18:04:45.119Z,18.10
2022-10-13T18:07:13.340Z,18.06
2022-10-13T18:09:41.722Z,18.03
2022-10-13T18:12:10.131Z,18.05
2022-10-13T18:14:38.450Z,18.07
2022-10-13T18:17:06.701Z,18.08
2022-10-13T18:19:39.949Z,18.04
2022-10-13T18:22:10.013Z,18.02
2022-10-13T18:24:38.667Z,18.03
2022-10-13T18:27:06.883Z,18.01
2022-10-13T18:29:36.778Z,17.96
2022-10-13T18:32:05.138Z,17.95
2022-10-13T18:34:33.346Z,17.92
2022-10-13T18:37:01.552Z,17.91
2022-10-13T18:39:31.894Z,17.93
2022-10-13T18:42:00.184Z,17.93
2022-10-13T18:44:35.567Z,17.88
2022-10-13T18:47:03.888Z,17.81
2022-10-13T18:49:33.251Z,17.75
2022-10-13T18:52:02.381Z,17.69
2022-10-13T18:54:32.202Z,17.73
2022-10-13T18:57:00.395Z,17.67
2022-10-13T18:59:28.662Z,17.62
2022-10-13T19:01:57.233Z,17.55
2022-10-13T19:04:26.710Z,17.51
2022-10-13T19:06:56.175Z,17.57
2022-10-13T19:09:25.557Z,17.61
2022-10-13T19:11:56.934Z,17.60
2022-10-13T19:14:25.882Z,17.59
2022-10-13T19:16:59.413Z,17.58
2022-10-13T19:19:31.130Z,17.58
2022-10-13T19:22:02.273Z,17.57
2022-10-13T19:24:30.697Z,17.53
2022-10-13T19:27:00.265Z,17.59
2022-10-13T19:29:30.521Z,17.49
2022-10-13T19:31:58.764Z,17.49
2022-10-13T19:34:27.117Z,17.46
2022-10-13T19:37:01.746Z,17.48
2022-10-13T19:39:30.185Z,17.47
2022-10-13T19:42:00.076Z,17.47
2022-10-13T19:44:28.457Z,17.44
2022-10-13T19:46:57.030Z,17.45
2022-10-13T19:49:26.593Z,17.45
2022-10-13T19:51:55.779Z,17.45
2022-10-13T19:54:25.743Z,17.46
2022-10-13T19:56:55.545Z,17.45
2022-10-13T19:59:25.398Z,17.42
2022-10-13T20:01:54.028Z,17.43
2022-10-13T20:04:22.435Z,17.36
2022-10-13T20:06:52.883Z,17.33
2022-10-13T20:09:21.468Z,17.34
2022-10-13T20:11:51.316Z,17.33
2022-10-13T20:14:19.783Z,17.34
2022-10-13T20:16:49.950Z,17.32
2022-10-13T20:19:19.872Z,17.30
2022-10-13T20:21:51.846Z,17.24
2022-10-13T20:24:21.594Z,17.20
2022-10-13T20:26:50.302Z,17.20
2022-10-13T20:29:23.661Z,17.20
2022-10-13T20:31:56.065Z,17.18
2022-10-13T20:34:24.348Z,17.19
2022-10-13T20:36:52.617Z,16.96
2022-10-13T20:39:21.040Z,17.21
2022-10-13T20:41:49.406Z,17.20
2022-10-13T20:44:18.720Z,17.22
2022-10-13T20:46:47.208Z,17.21
2022-10-13T20:49:16.903Z,17.16
2022-10-13T20:51:45.686Z,17.19
2022-10-13T20:54:15.860Z,17.19
2022-10-13T20:56:44.654Z,17.17
2022-10-13T20:59:14.774Z,17.18
2022-10-13T21:01:43.195Z,17.15
2022-10-13T21:04:11.498Z,17.15
2022-10-13T21:06:41.906Z,17.13
2022-10-13T21:09:11.092Z,16.67
2022-10-13T21:11:41.767Z,17.00
2022-10-13T21:14:10.499Z,17.05
2022-10-13T21:16:39.314Z,17.07
2022-10-13T21:19:10.069Z,17.06
2022-10-13T21:21:38.534Z,17.04
2022-10-13T21:24:09.570Z,17.02
2022-10-13T21:26:38.703Z,16.99
2022-10-13T21:29:07.191Z,16.97
2022-10-13T21:31:35.891Z,17.00
2022-10-13T21:34:04.352Z,17.02
2022-10-13T21:36:34.167Z,17.06
2022-10-13T21:39:04.596Z,17.06
2022-10-13T21:41:35.516Z,17.06
2022-10-13T21:44:04.333Z,17.03
2022-10-13T21:46:35.120Z,17.05
2022-10-13T21:49:05.587Z,17.02
2022-10-13T21:51:36.026Z,16.99
2022-10-13T21:54:08.704Z,16.83
2022-10-13T21:56:40.056Z,16.88
2022-10-13T21:59:08.914Z,16.96
2022-10-13T22:01:37.190Z,16.96
2022-10-13T22:04:12.965Z,16.95
2022-10-13T22:06:41.378Z,16.92
2022-10-13T22:09:09.642Z,16.92
2022-10-13T22:11:39.810Z,16.91
2022-10-13T22:14:14.428Z,16.76
2022-10-13T22:16:44.656Z,16.97
2022-10-13T22:19:13.485Z,16.95
2022-10-13T22:21:44.210Z,16.92
2022-10-13T22:24:14.896Z,16.93
2022-10-13T22:26:45.783Z,16.91
2022-10-13T22:29:16.819Z,16.92
2022-10-13T22:31:45.463Z,16.89
2022-10-13T22:34:15.322Z,16.87
2022-10-13T22:36:45.311Z,16.86
2022-10-13T22:39:14.304Z,16.89
2022-10-13T22:41:44.211Z,16.87
2022-10-13T22:44:12.480Z,16.85
2022-10-13T22:46:42.528Z,16.85
2022-10-13T22:49:14.827Z,16.86
2022-10-13T22:51:43.150Z,16.83
2022-10-13T22:54:11.787Z,16.81
2022-10-13T22:56:41.933Z,16.77
2022-10-13T22:59:13.169Z,16.77
2022-10-13T23:01:41.475Z,16.73
2022-10-13T23:04:09.901Z,16.76
2022-10-13T23:06:38.160Z,16.78
2022-10-13T23:09:09.363Z,16.80
2022-10-13T23:11:38.193Z,16.78
2022-10-13T23:14:07.919Z,16.79
2022-10-13T23:16:37.763Z,16.78
2022-10-13T23:19:06.079Z,16.76
2022-10-13T23:21:34.406Z,16.75
2022-10-13T23:24:04.838Z,16.76
2022-10-13T23:26:34.777Z,16.80
2022-10-13T23:29:03.191Z,16.81
2022-10-13T23:31:31.812Z,16.82
2022-10-13T23:34:01.501Z,16.82
2022-10-13T23:36:33.692Z,16.82
2022-10-13T23:39:04.153Z,16.21
2022-10-13T23:41:32.955Z,16.59
2022-10-13T23:44:01.802Z,16.72
2022-10-13T23:46:30.378Z,16.75
2022-10-13T23:48:58.592Z,16.74
2022-10-13T23:51:28.673Z,16.69
2022-10-13T23:53:57.150Z,16.71
2022-10-13T23:56:25.876Z,16.73
2022-10-13T23:58:54.311Z,16.76
